Time;durP1;ratioP1;P1;durP2;ratioP2;P2;SDS_P1;SDS_P2;PMS_P1;PMS_P2;Temp;Humidity;BMP_temperature;BMP_pressure;BME280_temperature;BME280_humidity;BME280_pressure;Samples;Min_cycle;Max_cycle;Signal;HPM_P1;HPM_P2
2023/06/23 00:00:19;;;;;;;9.70;8.20;;;;;;;22.62;68.06;97713.21;107274;1271;22553;-87
2023/06/23 00:03:06;;;;;;;13.50;8.70;;;;;;;22.59;67.92;97711.31;107286;1276;22653;-87
2023/06/23 00:05:34;;;;;;;9.80;8.80;;;;;;;22.58;68.10;97714.27;107250;1276;22572;-88
2023/06/23 00:08:01;;;;;;;10.70;9.60;;;;;;;22.55;68.13;97712.55;107281;1276;25256;-87
2023/06/23 00:10:28;;;;;;;11.80;8.40;;;;;;;22.52;68.20;97705.94;107232;1277;24243;-85
2023/06/23 00:12:54;;;;;;;9.40;8.60;;;;;;;22.50;68.41;97702.94;107168;1266;24256;-85
2023/06/23 00:15:22;;;;;;;10.20;8.90;;;;;;;22.47;68.59;97701.83;107227;1266;24085;-86
2023/06/23 00:17:50;;;;;;;10.70;8.50;;;;;;;22.45;68.68;97704.95;107256;1277;22768;-87
2023/06/23 00:20:17;;;;;;;9.10;8.00;;;;;;;22.45;68.77;97706.83;107233;1276;22708;-86
2023/06/23 00:22:44;;;;;;;10.40;8.70;;;;;;;22.48;68.84;97707.08;107300;1277;22616;-86
2023/06/23 00:25:12;;;;;;;10.60;8.80;;;;;;;22.50;68.98;97710.24;107190;1276;24714;-87
2023/06/23 00:27:40;;;;;;;13.50;8.60;;;;;;;22.50;68.94;97711.66;107252;1277;22539;-87
2023/06/23 00:30:07;;;;;;;10.90;8.60;;;;;;;22.51;68.76;97712.13;107322;1276;25271;-87
2023/06/23 00:32:34;;;;;;;10.30;9.10;;;;;;;22.49;68.94;97709.77;107231;1277;25386;-87
2023/06/23 00:35:01;;;;;;;9.90;8.90;;;;;;;22.48;68.77;97707.07;107279;1277;23938;-87
2023/06/23 00:37:31;;;;;;;9.60;8.60;;;;;;;22.46;68.96;97701.57;107118;1277;22531;-87
2023/06/23 00:39:58;;;;;;;9.80;8.90;;;;;;;22.46;68.88;97700.55;107282;1277;25481;-87
2023/06/23 00:42:26;;;;;;;10.00;8.80;;;;;;;22.43;69.23;97698.41;107153;1277;24070;-88
2023/06/23 00:44:53;;;;;;;9.00;8.10;;;;;;;22.41;69.34;97696.91;107229;1277;22568;-87
2023/06/23 00:47:20;;;;;;;10.20;9.20;;;;;;;22.41;69.68;97690.09;106983;1277;22527;-88
2023/06/23 00:49:47;;;;;;;11.60;8.10;;;;;;;22.43;69.50;97688.38;107164;1277;25475;-87
2023/06/23 00:52:13;;;;;;;11.50;9.00;;;;;;;22.45;69.66;97682.98;107215;1277;22562;-87
2023/06/23 00:54:40;;;;;;;9.50;8.60;;;;;;;22.44;69.76;97686.02;106974;1276;22548;-87
2023/06/23 00:57:07;;;;;;;10.40;7.90;;;;;;;22.43;69.59;97693.00;107271;1254;25504;-88
2023/06/23 00:59:34;;;;;;;11.10;8.70;;;;;;;22.43;69.60;97690.58;107260;1277;22610;-88
2023/06/23 01:02:02;;;;;;;9.00;8.10;;;;;;;22.42;69.52;97684.54;107107;1277;22682;-87
2023/06/23 01:04:34;;;;;;;11.80;9.00;;;;;;;22.41;69.64;97681.94;107300;1277;25616;-87
2023/06/23 01:07:26;;;;;;;9.20;8.30;;;;;;;22.39;69.65;97680.75;107099;1277;22685;-87
2023/06/23 01:10:14;;;;;;;9.60;8.00;;;;;;;22.40;69.38;97676.04;107293;1276;22653;-88
2023/06/23 01:12:50;;;;;;;10.30;8.00;;;;;;;22.39;69.39;97669.05;107262;1277;22580;-87
2023/06/23 01:15:26;;;;;;;10.80;8.10;;;;;;;22.38;69.68;97667.10;107111;1277;22587;-90
2023/06/23 01:18:11;;;;;;;9.20;7.90;;;;;;;22.41;69.60;97662.33;107353;1277;22530;-91
2023/06/23 01:20:41;;;;;;;8.70;7.90;;;;;;;22.43;69.80;97657.31;107344;1277;24254;-90
2023/06/23 01:23:56;;;;;;;10.00;9.00;;;;;;;22.43;69.91;97649.31;107337;1266;25343;-90
2023/06/23 01:26:42;;;;;;;9.40;8.50;;;;;;;22.43;69.80;97651.27;107112;1277;22663;-91
2023/06/23 01:29:09;;;;;;;9.40;8.50;;;;;;;22.43;69.57;97654.89;107345;1277;22524;-90
2023/06/23 01:31:39;;;;;;;9.50;8.70;;;;;;;22.44;69.72;97655.20;107076;1277;22870;-90
2023/06/23 01:34:09;;;;;;;11.40;8.60;;;;;;;22.43;69.69;97646.57;107360;1277;26607;-92
2023/06/23 01:36:38;;;;;;;9.50;8.60;;;;;;;22.43;69.65;97642.88;107079;1277;22531;-91
2023/06/23 01:39:08;;;;;;;9.60;8.70;;;;;;;22.43;69.66;97640.54;107337;1276;23314;-91
2023/06/23 01:41:44;;;;;;;10.30;9.20;;;;;;;22.44;69.76;97629.95;107278;1276;22734;-89
2023/06/23 01:44:14;;;;;;;;;;;;;;;22.46;69.89;97620.46;107291;1276;25365;-90
2023/06/23 01:46:44;;;;;;;12.30;8.90;;;;;;;22.47;69.89;97613.57;107337;1277;22546;-91
2023/06/23 01:49:16;;;;;;;12.90;9.30;;;;;;;22.49;70.34;97609.66;107080;1277;24218;-92
2023/06/23 01:51:46;;;;;;;9.30;8.40;;;;;;;22.51;70.18;97605.44;107161;1277;22601;-89
2023/06/23 01:54:17;;;;;;;9.80;8.90;;;;;;;22.52;69.92;97597.91;107338;1276;22588;-90
2023/06/23 01:56:46;;;;;;;9.60;8.50;;;;;;;22.52;69.94;97594.61;107098;1276;25632;-90
2023/06/23 01:59:14;;;;;;;12.00;9.10;;;;;;;22.51;69.74;97589.98;107159;1277;22607;-89
2023/06/23 02:01:44;;;;;;;9.20;8.30;;;;;;;22.48;69.74;97588.31;107011;1276;25356;-88
2023/06/23 02:04:12;;;;;;;10.20;9.20;;;;;;;22.45;69.74;97581.79;107191;1276;24362;-90
2023/06/23 02:06:43;;;;;;;10.10;8.90;;;;;;;22.39;69.74;97578.08;107305;1276;25479;-89
2023/06/23 02:09:17;;;;;;;11.30;9.40;;;;;;;22.33;69.74;97572.55;107263;1276;22570;-90
2023/06/23 02:11:45;;;;;;;10.30;9.30;;;;;;;22.23;69.78;97566.86;107069;1276;22659;-89
2023/06/23 02:14:13;;;;;;;10.00;8.70;;;;;;;22.16;69.74;97561.71;106953;1276;24394;-88
2023/06/23 02:16:41;;;;;;;10.40;8.00;;;;;;;22.10;70.06;97560.17;106988;1277;22999;-88
2023/06/23 02:19:09;;;;;;;11.80;9.40;;;;;;;22.07;70.65;97567.61;107330;1276;22541;-90
2023/06/23 02:21:37;;;;;;;10.10;9.20;;;;;;;22.02;70.58;97572.81;107357;1276;22542;-87
2023/06/23 02:24:06;;;;;;;10.60;9.20;;;;;;;21.95;70.69;97586.26;107336;1276;22531;-87
2023/06/23 02:26:36;;;;;;;12.10;9.20;;;;;;;21.90;70.72;97597.65;107443;1277;24329;-87
2023/06/23 02:29:06;;;;;;;10.30;9.30;;;;;;;21.86;70.63;97604.30;106999;1267;24375;-87
2023/06/23 02:31:33;;;;;;;10.30;9.10;;;;;;;21.81;70.78;97605.35;107277;1277;22534;-88
2023/06/23 02:34:01;;;;;;;10.70;9.30;;;;;;;21.75;70.84;97595.75;107233;1276;23475;-87
2023/06/23 02:36:37;;;;;;;10.10;8.90;;;;;;;21.71;71.43;97594.62;107167;1276;22567;-87
2023/06/23 02:39:06;;;;;;;11.10;9.40;;;;;;;21.68;71.52;97597.03;107204;1276;25463;-89
2023/06/23 02:41:35;;;;;;;10.00;9.10;;;;;;;21.67;71.92;97610.02;107261;1276;22901;-87
2023/06/23 02:44:12;;;;;;;10.20;9.30;;;;;;;21.66;72.10;97617.54;107251;1277;24085;-88
2023/06/23 02:46:42;;;;;;;10.30;9.30;;;;;;;21.66;72.25;97610.64;106989;1276;22616;-88
2023/06/23 02:49:14;;;;;;;11.10;10.20;;;;;;;21.64;72.25;97616.65;107047;1277;22532;-88
2023/06/23 02:51:44;;;;;;;10.30;9.30;;;;;;;21.64;72.21;97626.90;107149;1277;22622;-87
2023/06/23 02:54:17;;;;;;;12.40;10.10;;;;;;;21.68;72.53;97634.23;107375;1276;22527;-90
2023/06/23 02:56:46;;;;;;;11.20;10.00;;;;;;;21.72;72.41;97634.11;107311;1276;22720;-88
2023/06/23 02:59:18;;;;;;;11.80;10.60;;;;;;;21.73;72.29;97641.27;107081;1276;24242;-89
2023/06/23 03:01:48;;;;;;;12.50;10.40;;;;;;;21.69;72.29;97649.45;107322;1276;22576;-89
2023/06/23 03:04:16;;;;;;;11.50;10.30;;;;;;;21.66;72.18;97643.45;107367;1276;22546;-88
2023/06/23 03:06:44;;;;;;;11.40;10.20;;;;;;;21.65;72.21;97639.92;107089;1276;22527;-90
2023/06/23 03:09:11;;;;;;;10.80;9.60;;;;;;;21.60;72.22;97632.98;107223;1277;22615;-89
2023/06/23 03:11:38;;;;;;;13.70;10.10;;;;;;;21.58;72.28;97632.96;107350;1276;25297;-85
2023/06/23 03:14:06;;;;;;;10.90;9.80;;;;;;;21.58;72.54;97642.60;107345;1277;22698;-86
2023/06/23 03:16:48;;;;;;;12.80;11.30;;;;;;;21.59;72.73;97640.27;107405;1277;22812;-85
2023/06/23 03:19:25;;;;;;;11.60;10.50;;;;;;;21.62;72.84;97643.82;107335;1277;25697;-85
2023/06/23 03:22:29;;;;;;;12.40;11.10;;;;;;;21.64;72.82;97655.73;107338;1276;22549;-85
2023/06/23 03:25:03;;;;;;;12.40;10.90;;;;;;;21.67;73.09;97661.88;107259;1276;22521;-85
2023/06/23 03:27:33;;;;;;;12.30;10.10;;;;;;;21.71;73.14;97667.64;107069;1276;22559;-86
2023/06/23 03:30:05;;;;;;;12.50;11.30;;;;;;;21.77;73.14;97665.34;107314;1262;22538;-86
2023/06/23 03:32:38;;;;;;;11.80;10.50;;;;;;;21.86;73.30;97663.15;108149;1276;25407;-86
2023/06/23 03:35:10;;;;;;;12.60;11.40;;;;;;;21.92;73.41;97659.67;107443;1277;22521;-86
2023/06/23 03:37:52;;;;;;;14.70;11.70;;;;;;;22.00;73.41;97660.36;109459;1276;22033;-87
2023/06/23 03:40:22;;;;;;;12.30;10.40;;;;;;;22.07;73.57;97656.66;110068;1277;22657;-86
2023/06/23 03:42:58;;;;;;;13.20;11.90;;;;;;;22.16;73.86;97653.38;110328;1276;22568;-85
2023/06/23 03:45:28;;;;;;;13.10;11.00;;;;;;;22.23;73.76;97653.35;110390;1277;22555;-86
2023/06/23 03:48:01;;;;;;;12.80;10.50;;;;;;;22.31;73.66;97646.34;110409;1277;22358;-85
2023/06/23 03:50:33;;;;;;;12.20;11.00;;;;;;;22.38;74.01;97642.86;107772;1277;22530;-88
2023/06/23 03:53:05;;;;;;;12.60;10.90;;;;;;;22.45;74.09;97640.23;107266;1276;22569;-87
2023/06/23 03:55:33;;;;;;;12.20;11.00;;;;;;;22.51;74.19;97633.14;107345;1277;22657;-87
2023/06/23 03:58:06;;;;;;;12.30;11.10;;;;;;;22.59;74.19;97636.15;107124;1277;25353;-88
2023/06/23 04:00:35;;;;;;;14.50;11.80;;;;;;;22.65;74.12;97631.16;107358;1277;25380;-88
2023/06/23 04:03:06;;;;;;;15.40;11.10;;;;;;;22.70;74.05;97634.31;107304;1276;22830;-87
2023/06/23 04:05:37;;;;;;;16.10;12.30;;;;;;;22.75;74.00;97638.44;107358;1276;22560;-87
2023/06/23 04:08:05;;;;;;;13.30;11.90;;;;;;;22.82;74.27;97632.64;107430;1276;22541;-88
2023/06/23 04:10:33;;;;;;;17.80;12.10;;;;;;;22.90;74.17;97624.36;107373;1276;25287;-89
2023/06/23 04:13:01;;;;;;;16.50;12.70;;;;;;;22.94;74.24;97618.95;107360;1276;22593;-86
2023/06/23 04:15:28;;;;;;;16.20;13.10;;;;;;;22.94;74.29;97611.05;107281;1276;23184;-88
2023/06/23 04:17:58;;;;;;;17.80;12.60;;;;;;;22.93;74.54;97609.22;107264;1277;22550;-89
2023/06/23 04:20:25;;;;;;;16.40;12.60;;;;;;;22.93;74.63;97607.58;107307;1277;22557;-87
2023/06/23 04:22:54;;;;;;;16.20;12.40;;;;;;;22.96;74.82;97609.42;107438;1276;22586;-88
2023/06/23 04:25:23;;;;;;;14.00;12.50;;;;;;;23.02;74.98;97608.25;107377;1277;23916;-85
2023/06/23 04:27:55;;;;;;;13.70;11.70;;;;;;;23.05;75.12;97601.36;107314;1277;22577;-86
2023/06/23 04:30:24;;;;;;;14.40;12.00;;;;;;;23.05;75.20;97593.27;107309;1277;22798;-86
2023/06/23 04:32:50;;;;;;;13.70;12.30;;;;;;;23.06;75.34;97586.77;107394;1277;22637;-85
2023/06/23 04:35:17;;;;;;;14.90;12.20;;;;;;;23.04;75.24;97589.96;107364;1277;22989;-87
2023/06/23 04:38:00;;;;;;;15.20;11.40;;;;;;;22.98;75.11;97589.95;107131;1277;22569;-86
2023/06/23 04:40:29;;;;;;;14.00;12.30;;;;;;;22.94;75.18;97589.14;107317;1254;25605;-87
2023/06/23 04:43:19;;;;;;;14.00;11.50;;;;;;;22.95;75.63;97593.08;107291;1277;22550;-86
2023/06/23 04:46:03;;;;;;;14.50;12.10;;;;;;;22.95;75.85;97591.73;107156;1277;22635;-87
2023/06/23 04:48:34;;;;;;;17.30;13.40;;;;;;;22.95;76.02;97595.35;107314;1277;24274;-86
2023/06/23 04:51:04;;;;;;;12.70;11.20;;;;;;;22.95;76.06;97597.55;107371;1277;24228;-87
2023/06/23 04:53:42;;;;;;;13.40;12.10;;;;;;;23.01;75.97;97597.90;107373;1277;25364;-87
2023/06/23 04:56:15;;;;;;;13.00;11.20;;;;;;;23.11;75.95;97607.11;107288;1276;22575;-87
2023/06/23 04:58:46;;;;;;;18.30;12.60;;;;;;;23.20;76.22;97613.17;107265;1276;24682;-87
2023/06/23 05:01:15;;;;;;;17.30;12.10;;;;;;;23.26;76.19;97612.40;107275;1275;23814;-87
2023/06/23 05:03:44;;;;;;;15.70;12.80;;;;;;;23.32;76.15;97608.48;107388;1259;24195;-88
2023/06/23 05:06:13;;;;;;;15.30;12.20;;;;;;;23.33;76.17;97608.88;107297;1277;25374;-88
2023/06/23 05:08:42;;;;;;;14.70;13.20;;;;;;;23.37;76.10;97603.71;107106;1278;22571;-88
2023/06/23 05:11:11;;;;;;;13.10;11.80;;;;;;;23.43;75.96;97603.01;107308;1277;22546;-89
2023/06/23 05:13:39;;;;;;;12.10;10.90;;;;;;;23.57;76.17;97601.52;107562;1277;22780;-90
2023/06/23 05:16:10;;;;;;;14.20;12.80;;;;;;;23.73;76.12;97603.44;107327;1277;22623;-89
2023/06/23 05:18:40;;;;;;;13.50;12.10;;;;;;;23.86;76.04;97597.63;107394;1277;22535;-89
2023/06/23 05:21:08;;;;;;;13.40;12.10;;;;;;;23.92;75.81;97602.34;107371;1277;22571;-89
2023/06/23 05:23:40;;;;;;;12.80;11.40;;;;;;;23.98;75.66;97614.14;107275;1277;22642;-91
2023/06/23 05:26:14;;;;;;;13.80;12.50;;;;;;;24.03;75.35;97610.19;107296;1277;22612;-89
2023/06/23 05:28:43;;;;;;;16.60;13.20;;;;;;;24.09;75.21;97602.63;107359;1277;22605;-89
2023/06/23 05:31:11;;;;;;;15.30;12.70;;;;;;;24.17;75.30;97589.26;107291;1276;22658;-87
2023/06/23 05:33:42;;;;;;;12.90;10.90;;;;;;;24.24;75.17;97581.44;107040;1278;25548;-87
2023/06/23 05:36:11;;;;;;;13.20;11.90;;;;;;;24.26;75.13;97597.48;107289;1277;25390;-87
2023/06/23 05:38:41;;;;;;;13.60;12.40;;;;;;;24.27;75.10;97603.63;107273;1255;22532;-91
2023/06/23 05:41:08;;;;;;;13.10;11.80;;;;;;;24.25;74.94;97606.22;107199;1276;23921;-91
2023/06/23 05:43:35;;;;;;;13.50;12.30;;;;;;;24.19;74.72;97630.77;107097;1260;22686;-89
2023/06/23 05:46:12;;;;;;;13.40;10.20;;;;;;;24.03;75.47;97706.29;107349;1276;24323;-85
2023/06/23 05:48:46;;;;;;;12.80;8.50;;;;;;;23.57;69.62;97735.20;107170;1276;24257;-80
2023/06/23 05:51:17;;;;;;;18.70;8.70;;;;;;;23.20;68.85;97750.29;107177;1277;25516;-81
2023/06/23 05:53:49;;;;;;;20.50;7.80;;;;;;;22.93;69.56;97756.98;106939;1262;22594;-85
2023/06/23 05:56:22;;;;;;;17.80;7.90;;;;;;;22.55;70.51;97774.91;106987;1278;22550;-82
2023/06/23 05:58:56;;;;;;;14.30;6.30;;;;;;;22.12;74.47;97780.34;107005;1278;22727;-77
2023/06/23 06:01:25;;;;;;;18.00;7.80;;;;;;;21.15;80.71;97769.89;107116;1277;22521;-83
2023/06/23 06:04:07;;;;;;;20.40;6.70;;;;;;;20.33;84.92;97787.10;107608;1255;24209;-92
2023/06/23 06:06:36;;;;;;;17.00;5.60;;;;;;;19.56;86.69;97773.91;107459;1276;22595;-89
2023/06/23 06:09:08;;;;;;;13.70;6.30;;;;;;;19.31;85.72;97780.89;108020;1276;22560;-92
2023/06/23 06:11:38;;;;;;;17.40;6.60;;;;;;;19.06;86.98;97772.73;108366;1276;22609;-87
2023/06/23 06:14:10;;;;;;;13.60;6.70;;;;;;;18.86;86.68;97744.05;107825;1276;22564;-89
2023/06/23 06:16:37;;;;;;;14.20;7.80;;;;;;;18.76;91.12;97689.64;107918;1272;22557;-90
2023/06/23 06:19:06;;;;;;;18.20;8.00;;;;;;;18.63;88.78;97674.52;108658;1276;22528;-94
2023/06/23 06:21:35;;;;;;;22.70;8.80;;;;;;;18.64;91.03;97707.36;107947;1276;22537;-91
2023/06/23 06:24:05;;;;;;;16.30;7.20;;;;;;;18.65;91.37;97735.67;107896;1276;22544;-92
2023/06/23 06:26:32;;;;;;;14.40;6.70;;;;;;;18.70;90.87;97708.36;108089;1276;24228;-87
2023/06/23 06:29:01;;;;;;;17.00;6.90;;;;;;;18.79;91.84;97668.86;108448;1273;22555;-92
2023/06/23 06:31:31;;;;;;;16.00;7.20;;;;;;;18.84;91.03;97653.54;108154;1276;22832;-91
2023/06/23 06:34:00;;;;;;;17.40;7.10;;;;;;;18.90;91.42;97653.98;108086;1276;22489;-92
2023/06/23 06:36:31;;;;;;;12.00;6.10;;;;;;;18.93;90.83;97650.53;108345;1276;23682;-93
2023/06/23 06:39:01;;;;;;;15.20;7.70;;;;;;;19.00;90.42;97647.80;108515;1277;22553;-92
2023/06/23 06:41:30;;;;;;;10.20;5.80;;;;;;;19.07;90.39;97654.62;108724;1277;22538;-90
2023/06/23 06:43:57;;;;;;;14.70;6.80;;;;;;;19.17;92.10;97657.61;108240;1278;22548;-89
2023/06/23 06:46:26;;;;;;;17.90;13.50;;;;;;;19.27;91.54;97654.84;108083;1277;22736;-90
2023/06/23 06:48:56;;;;;;;12.10;6.90;;;;;;;19.35;91.03;97646.54;108217;1276;22554;-90
2023/06/23 06:51:25;;;;;;;11.90;6.40;;;;;;;19.41;92.26;97642.85;107932;1276;23922;-91
2023/06/23 06:53:51;;;;;;;11.90;5.90;;;;;;;19.46;92.86;97638.39;107560;1276;22554;-89
2023/06/23 06:56:21;;;;;;;11.50;6.20;;;;;;;19.52;91.62;97636.33;107552;1277;22559;-89
2023/06/23 06:58:48;;;;;;;12.00;5.90;;;;;;;19.49;91.69;97623.23;107499;1276;22534;-90
2023/06/23 07:01:15;;;;;;;13.60;6.40;;;;;;;19.46;94.76;97604.92;107660;1276;23423;-91
2023/06/23 07:03:44;;;;;;;13.10;6.30;;;;;;;19.32;94.41;97606.77;108192;1276;22543;-91
2023/06/23 07:06:12;;;;;;;11.60;6.10;;;;;;;19.28;93.26;97605.63;107576;1276;24203;-90
2023/06/23 07:08:42;;;;;;;10.70;6.70;;;;;;;19.28;93.37;97601.02;107634;1276;22482;-91
2023/06/23 07:11:10;;;;;;;13.90;7.10;;;;;;;19.23;92.96;97608.50;107406;1276;22675;-91
2023/06/23 07:13:37;;;;;;;12.40;6.10;;;;;;;19.22;93.96;97618.01;107745;1276;25928;-91
2023/06/23 07:16:04;;;;;;;11.90;6.30;;;;;;;19.22;93.48;97622.05;108125;1276;22564;-92
2023/06/23 07:18:32;;;;;;;13.90;6.70;;;;;;;19.24;94.40;97621.85;107925;1277;22588;-90
2023/06/23 07:21:00;;;;;;;12.50;5.90;;;;;;;19.24;94.14;97616.38;108221;1276;25423;-93
2023/06/23 07:23:27;;;;;;;9.70;5.80;;;;;;;19.28;94.41;97617.80;108846;1276;25301;-93
2023/06/23 07:25:53;;;;;;;12.30;6.20;;;;;;;19.31;94.52;97618.15;108731;1271;22550;-90
2023/06/23 07:28:20;;;;;;;11.50;7.20;;;;;;;19.33;95.97;97623.58;108499;1276;22554;-91
2023/06/23 07:30:47;;;;;;;14.20;7.50;;;;;;;19.37;94.98;97614.90;108538;1276;22652;-94
2023/06/23 07:33:13;;;;;;;15.70;7.20;;;;;;;19.42;95.39;97613.44;108536;1276;22542;-91
2023/06/23 07:35:40;;;;;;;13.40;10.70;;;;;;;19.47;96.31;97618.67;108612;1276;23527;-88
2023/06/23 07:38:07;;;;;;;12.30;8.50;;;;;;;19.50;97.77;97621.69;108893;1274;27114;-92
2023/06/23 07:40:33;;;;;;;12.60;6.70;;;;;;;19.54;97.85;97621.20;108287;1270;22501;-90
2023/06/23 07:43:01;;;;;;;9.10;6.20;;;;;;;19.60;97.48;97613.11;108929;1270;23306;-88
2023/06/23 07:45:27;;;;;;;7.30;3.80;;;;;;;19.70;97.72;97606.90;107633;1270;22532;-87
2023/06/23 07:47:54;;;;;;;8.40;4.00;;;;;;;19.91;98.79;97613.57;109172;1276;22667;-88
2023/06/23 07:50:21;;;;;;;7.40;5.20;;;;;;;20.22;99.60;97621.60;107476;1277;23282;-84
2023/06/23 07:52:54;;;;;;;10.50;5.30;;;;;;;20.45;98.58;97630.45;107412;1276;24234;-83
2023/06/23 07:55:21;;;;;;;10.20;5.90;;;;;;;20.68;99.40;97638.69;107446;1276;25353;-83
2023/06/23 07:57:51;;;;;;;9.10;4.80;;;;;;;20.90;98.96;97647.89;107247;1276;25419;-83
2023/06/23 08:00:18;;;;;;;13.10;6.10;;;;;;;21.12;99.10;97657.38;107497;1260;23955;-82
2023/06/23 08:02:45;;;;;;;8.70;6.10;;;;;;;21.32;99.61;97674.27;107367;1276;23194;-83
2023/06/23 08:05:12;;;;;;;11.10;6.20;;;;;;;21.58;99.93;97681.85;107371;1277;25378;-83
2023/06/23 08:07:39;;;;;;;11.50;6.80;;;;;;;21.83;99.69;97693.21;107229;1276;22618;-85
2023/06/23 08:10:06;;;;;;;14.70;9.20;;;;;;;22.01;98.69;97696.74;107331;1270;22535;-84
2023/06/23 08:12:35;;;;;;;14.30;8.10;;;;;;;22.07;97.76;97701.42;107352;1276;22538;-83
2023/06/23 08:15:02;;;;;;;14.20;8.60;;;;;;;22.09;97.49;97696.41;107394;1270;22538;-84
2023/06/23 08:17:29;;;;;;;13.30;8.90;;;;;;;22.12;96.78;97694.95;107315;1276;22649;-84
2023/06/23 08:19:55;;;;;;;12.50;7.30;;;;;;;22.20;97.78;97698.33;107305;1276;25463;-82
2023/06/23 08:22:22;;;;;;;16.20;8.00;;;;;;;22.40;97.83;97699.66;107324;1276;22702;-79
2023/06/23 08:24:49;;;;;;;18.30;9.10;;;;;;;22.56;97.70;97703.84;107350;1276;24337;-85
2023/06/23 08:27:15;;;;;;;16.70;9.10;;;;;;;22.65;97.68;97711.05;106915;1276;22576;-86
2023/06/23 08:29:42;;;;;;;14.70;9.10;;;;;;;22.71;97.31;97712.79;106918;1276;22819;-87
2023/06/23 08:32:10;;;;;;;14.40;7.90;;;;;;;22.70;97.43;97718.98;107135;1276;22711;-85
2023/06/23 08:34:37;;;;;;;14.50;9.30;;;;;;;22.80;97.74;97717.23;107338;1276;22536;-85
2023/06/23 08:37:04;;;;;;;18.60;14.00;;;;;;;22.93;97.62;97714.64;107418;1276;24219;-87
2023/06/23 08:39:31;;;;;;;16.10;11.90;;;;;;;22.94;97.26;97716.54;107379;1276;25408;-87
2023/06/23 08:41:58;;;;;;;18.80;11.70;;;;;;;22.95;97.35;97715.45;107356;1276;24206;-84
2023/06/23 08:44:29;;;;;;;14.10;11.20;;;;;;;23.01;97.20;97711.02;107261;1276;25389;-83
2023/06/23 08:46:57;;;;;;;17.80;11.10;;;;;;;23.06;96.99;97708.45;107293;1276;25129;-82
2023/06/23 08:49:38;;;;;;;14.70;11.00;;;;;;;23.04;96.53;97702.64;107196;1276;22541;-83
2023/06/23 08:52:06;;;;;;;18.30;11.30;;;;;;;23.05;96.30;97705.23;107236;1276;22585;-82
2023/06/23 08:54:33;;;;;;;14.10;10.20;;;;;;;23.11;96.39;97704.56;107330;1277;22534;-81
2023/06/23 08:56:59;;;;;;;15.50;9.70;;;;;;;23.21;96.20;97709.30;107319;1276;22530;-83
2023/06/23 08:59:26;;;;;;;20.00;9.10;;;;;;;23.21;95.42;97710.17;107344;1276;24262;-81
2023/06/23 09:01:53;;;;;;;14.10;8.30;;;;;;;23.15;95.32;97713.66;107292;1273;22575;-81
2023/06/23 09:04:20;;;;;;;13.60;8.30;;;;;;;23.27;95.91;97714.52;107401;1269;22536;-81
2023/06/23 09:06:47;;;;;;;12.40;7.10;;;;;;;23.45;95.17;97707.89;107361;1277;25386;-79
2023/06/23 09:09:14;;;;;;;17.50;9.00;;;;;;;23.56;94.59;97710.20;106809;1276;22598;-79
2023/06/23 09:11:42;;;;;;;16.50;9.10;;;;;;;23.67;94.49;97710.92;106765;1277;22542;-78
2023/06/23 09:14:10;;;;;;;13.60;9.40;;;;;;;23.75;93.82;97713.88;107197;1270;22581;-81
2023/06/23 09:16:41;;;;;;;14.60;8.70;;;;;;;23.80;93.24;97716.17;107266;1271;24399;-80
2023/06/23 09:19:09;;;;;;;14.20;8.20;;;;;;;23.76;92.28;97719.15;107196;1276;23127;-80
2023/06/23 09:21:36;;;;;;;14.80;7.80;;;;;;;23.75;92.39;97728.19;107142;1276;22717;-84
2023/06/23 09:24:05;;;;;;;18.80;8.10;;;;;;;23.77;92.05;97734.31;107224;1276;22684;-78
2023/06/23 09:26:47;;;;;;;14.80;7.10;;;;;;;23.83;91.77;97730.64;107200;1277;22623;-82
2023/06/23 09:29:21;;;;;;;14.00;7.20;;;;;;;23.93;92.02;97730.10;106902;1276;22796;-83
2023/06/23 09:31:49;;;;;;;12.60;7.60;;;;;;;23.98;91.17;97730.02;107267;1263;22552;-81
2023/06/23 09:34:21;;;;;;;18.40;7.90;;;;;;;24.09;91.18;97730.27;107149;1270;25353;-80
2023/06/23 09:36:48;;;;;;;15.90;7.80;;;;;;;24.17;91.00;97731.54;107184;1276;22530;-82
2023/06/23 09:39:15;;;;;;;14.30;7.70;;;;;;;24.30;91.18;97732.48;107269;1269;25533;-81
2023/06/23 09:41:58;;;;;;;12.60;7.30;;;;;;;24.41;90.18;97732.80;107210;1270;25301;-80
2023/06/23 09:44:51;;;;;;;13.90;7.10;;;;;;;24.40;89.57;97733.81;107092;1276;26312;-82
2023/06/23 09:47:18;;;;;;;12.60;6.30;;;;;;;24.42;89.53;97738.94;107102;1269;22566;-82
2023/06/23 09:49:48;;;;;;;14.60;7.30;;;;;;;24.56;89.52;97726.90;107278;1269;22950;-82
2023/06/23 09:52:23;;;;;;;12.90;6.70;;;;;;;24.73;88.79;97725.77;107309;1277;25512;-83
2023/06/23 09:54:50;;;;;;;15.80;7.20;;;;;;;24.81;88.39;97731.42;107214;1276;22551;-82
2023/06/23 09:57:18;;;;;;;13.20;5.80;;;;;;;25.01;88.44;97720.11;107086;1267;23933;-81
2023/06/23 09:59:48;;;;;;;11.30;6.40;;;;;;;25.19;87.86;97708.27;107220;1276;22711;-82
2023/06/23 10:02:24;;;;;;;12.30;7.00;;;;;;;25.35;87.65;97709.45;107282;1276;22536;-82
2023/06/23 10:04:58;;;;;;;12.40;6.90;;;;;;;25.45;86.01;97712.23;107209;1276;22822;-80
2023/06/23 10:07:25;;;;;;;;;;;;;;;25.62;86.61;97715.13;107321;1276;24247;-80
2023/06/23 10:09:54;;;;;;;13.80;7.30;;;;;;;25.76;86.67;97718.20;107204;1276;25604;-83
2023/06/23 10:12:41;;;;;;;15.20;7.00;;;;;;;25.86;84.08;97727.40;107243;1269;22647;-84
2023/06/23 10:15:09;;;;;;;15.90;7.30;;;;;;;25.92;84.86;97735.95;107021;1267;25321;-88
2023/06/23 10:17:37;;;;;;;18.60;7.10;;;;;;;26.03;83.35;97742.17;106800;1275;24196;-80
2023/06/23 10:20:05;;;;;;;12.90;7.40;;;;;;;26.07;83.49;97738.29;107206;1276;22665;-81
2023/06/23 10:22:36;;;;;;;13.80;7.70;;;;;;;26.18;82.63;97738.83;107307;1276;22530;-80
2023/06/23 10:25:07;;;;;;;16.50;7.90;;;;;;;26.25;82.32;97734.06;107375;1276;22573;-80
2023/06/23 10:27:35;;;;;;;21.20;8.20;;;;;;;26.31;81.57;97721.36;107381;1276;22586;-80
2023/06/23 10:30:03;;;;;;;14.20;8.20;;;;;;;26.36;81.06;97718.33;107281;1276;22566;-79
2023/06/23 10:32:34;;;;;;;17.20;8.60;;;;;;;26.47;81.30;97717.84;107323;1276;24218;-81
2023/06/23 10:35:08;;;;;;;18.60;11.70;;;;;;;26.58;81.32;97724.39;106827;1276;22560;-81
2023/06/23 10:37:35;;;;;;;16.60;8.90;;;;;;;26.71;80.92;97729.31;107215;1270;25481;-81
2023/06/23 10:40:16;;;;;;;15.60;8.60;;;;;;;26.84;80.38;97729.44;107255;1276;26730;-80
2023/06/23 10:42:45;;;;;;;15.20;8.80;;;;;;;26.89;80.22;97726.84;107247;1276;22645;-80
2023/06/23 10:45:12;;;;;;;16.80;9.80;;;;;;;27.06;80.18;97728.62;107318;1276;22535;-81
2023/06/23 10:47:39;;;;;;;14.20;9.90;;;;;;;27.21;79.58;97732.04;106771;1276;23013;-81
2023/06/23 10:50:08;;;;;;;16.70;9.50;;;;;;;27.31;79.41;97728.20;106841;1276;24253;-79
2023/06/23 10:52:35;;;;;;;14.80;10.30;;;;;;;27.45;77.98;97723.60;107352;1276;22570;-80
2023/06/23 10:55:48;;;;;;;20.40;10.50;;;;;;;27.47;78.12;97722.39;107202;1276;24060;-81
2023/06/23 10:58:51;;;;;;;21.00;11.10;;;;;;;27.66;78.45;97724.81;106917;1276;22566;-79
2023/06/23 11:01:18;;;;;;;14.70;11.50;;;;;;;27.81;76.43;97731.67;106969;1276;25322;-79
2023/06/23 11:03:45;;;;;;;15.20;11.20;;;;;;;27.89;76.77;97733.93;107204;1270;22532;-80
2023/06/23 11:06:11;;;;;;;25.50;15.80;;;;;;;27.91;75.62;97732.30;107183;1276;25402;-80
2023/06/23 11:08:42;;;;;;;26.50;15.40;;;;;;;27.75;74.19;97734.43;107336;1276;24263;-80
2023/06/23 11:11:11;;;;;;;20.70;13.80;;;;;;;27.60;74.80;97735.02;107229;1263;22531;-81
2023/06/23 11:13:44;;;;;;;23.30;13.10;;;;;;;27.55;74.67;97734.23;107265;1261;25395;-80
2023/06/23 11:16:25;;;;;;;17.20;12.60;;;;;;;27.53;74.53;97736.23;107222;1276;25427;-81
2023/06/23 11:18:54;;;;;;;19.30;12.70;;;;;;;27.46;73.09;97734.81;107212;1276;25390;-78
2023/06/23 11:21:38;;;;;;;15.90;11.70;;;;;;;27.37;74.41;97729.08;106899;1273;22644;-78
2023/06/23 11:24:13;;;;;;;20.60;13.00;;;;;;;27.48;74.86;97725.20;106793;1276;22536;-78
2023/06/23 11:26:43;;;;;;;19.20;14.00;;;;;;;27.57;73.90;97719.79;106738;1276;22531;-78
2023/06/23 11:29:12;;;;;;;17.50;12.50;;;;;;;27.55;72.72;97719.98;107137;1276;24377;-77
2023/06/23 11:32:06;;;;;;;17.60;12.20;;;;;;;27.41;72.52;97715.42;107176;1276;25452;-78